createdAt,value
2018-09-20T00:01:14.600Z,23.91
2018-09-20T00:02:46.177Z,23.83
2018-09-20T00:04:17.751Z,23.90
2018-09-20T00:05:49.328Z,23.87
2018-09-20T00:07:20.903Z,23.83
2018-09-20T00:08:52.733Z,23.79
2018-09-20T00:10:24.055Z,23.73
2018-09-20T00:11:55.631Z,23.83
2018-09-20T00:13:27.206Z,23.79
2018-09-20T00:16:30.511Z,23.70
2018-09-20T00:18:01.933Z,23.66
2018-09-20T00:19:33.511Z,23.76
2018-09-20T00:21:05.085Z,23.76
2018-09-20T00:22:36.811Z,23.70
2018-09-20T00:24:08.252Z,23.70
2018-09-20T00:25:39.811Z,23.68
2018-09-20T00:27:11.388Z,23.61
2018-09-20T00:28:43.167Z,23.57
2018-09-20T00:30:14.539Z,23.50
2018-09-20T00:33:17.691Z,23.33
2018-09-20T00:34:49.266Z,23.28
2018-09-20T00:36:20.842Z,23.22
2018-09-20T00:37:52.418Z,23.19
2018-09-20T00:39:23.994Z,23.07
2018-09-20T00:40:55.571Z,23.02
2018-09-20T00:42:27.145Z,23.07
2018-09-20T00:43:58.721Z,23.20
2018-09-20T00:45:30.298Z,23.15
2018-09-20T00:47:01.973Z,23.15
2018-09-20T00:48:33.449Z,23.01
2018-09-20T00:50:05.027Z,22.90
2018-09-20T00:51:36.601Z,22.98
2018-09-20T00:53:08.178Z,23.01
2018-09-20T00:54:39.753Z,23.17
2018-09-20T00:56:11.328Z,23.02
2018-09-20T00:57:42.905Z,23.00
2018-09-20T00:59:14.630Z,22.92
2018-09-20T01:00:46.056Z,22.83
2018-09-20T01:02:17.633Z,22.68
2018-09-20T01:03:49.731Z,22.58
2018-09-20T01:05:20.883Z,22.58
2018-09-20T01:08:23.934Z,22.61
2018-09-20T01:09:55.510Z,22.62
2018-09-20T01:11:27.086Z,22.72
2018-09-20T01:12:58.662Z,22.62
2018-09-20T01:14:30.238Z,22.58
2018-09-20T01:16:01.814Z,22.47
2018-09-20T01:17:33.391Z,22.35
2018-09-20T01:19:04.968Z,22.31
2018-09-20T01:20:36.542Z,22.27
2018-09-20T01:22:08.160Z,22.37
2018-09-20T01:23:39.792Z,22.35
2018-09-20T01:25:11.267Z,22.35
2018-09-20T01:26:42.846Z,22.35
2018-09-20T01:28:14.418Z,22.14
2018-09-20T01:29:46.005Z,22.10
2018-09-20T01:31:17.572Z,22.24
2018-09-20T01:32:49.163Z,22.14
2018-09-20T01:34:20.721Z,22.12
2018-09-20T01:35:52.306Z,22.14
2018-09-20T01:37:23.875Z,22.17
2018-09-20T01:40:27.023Z,22.54
2018-09-20T01:41:58.706Z,22.49
2018-09-20T01:43:30.175Z,22.46
2018-09-20T01:45:01.750Z,22.42
2018-09-20T01:46:33.325Z,22.39
2018-09-20T01:48:04.904Z,22.35
2018-09-20T01:49:36.479Z,22.36
2018-09-20T01:51:08.052Z,22.33
2018-09-20T01:52:39.628Z,22.22
2018-09-20T01:54:11.204Z,22.25
2018-09-20T01:55:42.781Z,22.25
2018-09-20T01:57:14.354Z,22.30
2018-09-20T01:58:45.962Z,22.55
2018-09-20T02:00:17.604Z,22.91
2018-09-20T02:01:49.282Z,23.07
2018-09-20T02:03:20.655Z,23.15
2018-09-20T02:06:23.804Z,23.20
2018-09-20T02:07:55.380Z,23.20
2018-09-20T02:09:26.955Z,23.33
2018-09-20T02:10:58.531Z,23.20
2018-09-20T02:12:30.106Z,23.07
2018-09-20T02:14:01.687Z,23.17
2018-09-20T02:15:33.256Z,23.38
2018-09-20T02:17:04.830Z,23.46
2018-09-20T02:18:36.534Z,23.36
2018-09-20T02:20:07.982Z,23.40
2018-09-20T02:21:39.557Z,23.58
2018-09-20T02:23:11.145Z,23.46
2018-09-20T02:24:42.709Z,23.36
2018-09-20T02:26:14.286Z,23.23
2018-09-20T02:27:45.867Z,23.15
2018-09-20T02:29:17.439Z,23.13
2018-09-20T02:30:49.110Z,23.16
2018-09-20T02:32:20.585Z,22.98
2018-09-20T02:33:52.165Z,22.88
2018-09-20T02:35:23.739Z,22.73
2018-09-20T02:38:26.993Z,22.60
2018-09-20T02:39:58.462Z,22.60
2018-09-20T02:41:30.046Z,22.52
2018-09-20T02:43:01.613Z,22.65
2018-09-20T02:44:33.191Z,22.68
2018-09-20T02:46:04.767Z,22.67
2018-09-20T02:47:36.347Z,22.45
2018-09-20T02:49:07.916Z,22.35
2018-09-20T02:50:39.494Z,22.33
2018-09-20T02:52:11.068Z,22.17
2018-09-20T02:53:42.644Z,22.20
2018-09-20T02:55:14.220Z,22.18
2018-09-20T02:56:45.897Z,22.10
2018-09-20T02:58:17.371Z,22.10
2018-09-20T02:59:48.947Z,22.07
2018-09-20T03:01:20.523Z,22.14
2018-09-20T03:04:23.773Z,22.15
2018-09-20T03:05:55.248Z,22.10
2018-09-20T03:07:26.825Z,22.09
2018-09-20T03:08:58.601Z,21.92
2018-09-20T03:10:29.979Z,21.86
2018-09-20T03:12:01.598Z,21.75
2018-09-20T03:13:33.124Z,21.64
2018-09-20T03:15:04.697Z,21.62
2018-09-20T03:16:36.375Z,21.38
2018-09-20T03:18:07.848Z,21.09
2018-09-20T03:19:39.736Z,20.85
2018-09-20T03:21:10.993Z,20.69
2018-09-20T03:22:42.567Z,20.50
2018-09-20T03:24:14.142Z,20.38
2018-09-20T03:27:17.289Z,19.92
2018-09-20T03:28:49.163Z,19.68
2018-09-20T03:30:20.463Z,19.63
2018-09-20T03:31:52.012Z,19.33
2018-09-20T03:33:23.582Z,18.91
2018-09-20T03:36:26.926Z,18.30
2018-09-20T03:37:58.298Z,18.10
2018-09-20T03:39:29.870Z,18.00
2018-09-20T03:41:01.965Z,17.99
2018-09-20T03:42:33.014Z,17.79
2018-09-20T03:45:36.196Z,17.63
2018-09-20T03:47:07.728Z,17.44
2018-09-20T03:48:39.299Z,17.36
2018-09-20T03:50:10.868Z,17.18
2018-09-20T03:53:14.008Z,17.14
2018-09-20T03:54:45.681Z,17.12
2018-09-20T03:56:17.150Z,17.01
2018-09-20T03:57:48.720Z,16.97
2018-09-20T03:59:20.289Z,16.98
2018-09-20T04:00:52.683Z,17.07
2018-09-20T14:30:39.025Z,23.72
2018-09-20T14:32:11.227Z,23.43
2018-09-20T14:33:41.881Z,23.32
2018-09-20T14:35:14.084Z,23.55
2018-09-20T14:38:16.922Z,23.94
2018-09-20T14:42:51.566Z,23.91
2018-09-20T14:44:23.157Z,23.83
2018-09-20T14:45:55.432Z,23.93
2018-09-20T14:47:27.513Z,24.09
2018-09-20T14:48:59.209Z,23.97
2018-09-20T14:52:01.141Z,23.50
2018-09-20T14:53:35.448Z,23.43
2018-09-20T14:55:05.688Z,23.36
2018-09-20T14:56:35.625Z,23.32
2018-09-20T14:58:08.527Z,23.25
2018-09-20T14:59:40.266Z,23.38
2018-09-20T15:01:10.322Z,23.31
2018-09-20T15:02:42.909Z,23.16
2018-09-20T15:04:13.949Z,22.97
2018-09-20T15:07:16.627Z,22.75
2018-09-20T15:08:48.206Z,22.75
2018-09-20T15:10:19.809Z,22.62
2018-09-20T15:14:54.846Z,22.62
2018-09-20T15:16:27.120Z,22.49
2018-09-20T15:19:29.246Z,22.33
2018-09-20T15:25:35.754Z,22.06
2018-09-20T15:28:38.707Z,21.77
2018-09-20T15:30:10.281Z,21.61
2018-09-20T15:31:42.622Z,21.83
2018-09-20T15:34:45.213Z,21.98
2018-09-20T15:36:16.584Z,22.07
2018-09-20T15:37:48.795Z,21.99
2018-09-20T15:39:19.762Z,22.10
2018-09-20T15:40:51.615Z,22.24
2018-09-20T15:42:22.888Z,22.28
2018-09-20T15:43:55.071Z,22.51
2018-09-20T15:45:26.243Z,22.35
2018-09-20T15:46:57.616Z,22.35
2018-09-20T15:48:29.195Z,22.22
2018-09-20T15:50:01.385Z,21.90
2018-09-20T15:51:32.450Z,22.05
2018-09-20T15:53:04.441Z,22.07
2018-09-20T15:56:07.074Z,21.94
2018-09-20T15:57:38.792Z,21.90
2018-09-20T16:00:43.148Z,21.92
2018-09-20T16:02:14.569Z,21.82
2018-09-20T16:03:45.653Z,22.15
2018-09-20T16:05:16.533Z,22.09
2018-09-20T16:06:48.291Z,22.27
2018-09-20T16:08:20.142Z,22.60
2018-09-20T16:11:23.047Z,22.85
2018-09-20T16:12:54.807Z,23.16
2018-09-20T16:14:26.086Z,23.70
2018-09-20T16:15:57.585Z,23.98
2018-09-20T16:17:29.470Z,23.54
2018-09-20T16:20:32.622Z,23.38
2018-09-20T16:22:03.900Z,23.23
2018-09-20T16:23:35.581Z,23.28
2018-09-20T16:25:07.160Z,23.73
2018-09-20T16:26:38.971Z,23.95
2018-09-20T16:29:42.401Z,24.20
2018-09-20T16:31:13.427Z,23.61
2018-09-20T16:32:45.465Z,23.68
2018-09-20T16:34:16.747Z,23.79
2018-09-20T16:37:19.707Z,24.27
2018-09-20T16:38:51.540Z,24.16
2018-09-20T16:40:23.262Z,23.76
2018-09-20T16:41:54.499Z,23.68
2018-09-20T16:43:26.082Z,23.48
2018-09-20T16:44:57.710Z,23.39
2018-09-20T16:46:29.496Z,23.31
2018-09-20T16:48:00.771Z,23.19
2018-09-20T16:49:32.362Z,23.01
2018-09-20T16:51:05.613Z,22.94
2018-09-20T16:54:07.141Z,22.95
2018-09-20T16:55:39.404Z,22.82
2018-09-20T16:57:11.317Z,22.73
2018-09-20T16:58:41.831Z,22.64
2018-09-20T17:00:14.024Z,22.51
2018-09-20T17:01:45.011Z,22.55
2018-09-20T17:03:17.388Z,22.35
2018-09-20T17:04:48.449Z,22.51
2018-09-20T17:06:20.307Z,22.52
2018-09-20T17:07:51.333Z,22.60
2018-09-20T17:09:23.401Z,22.68
2018-09-20T17:10:54.455Z,22.75
2018-09-20T17:12:26.033Z,22.83
2018-09-20T17:13:57.914Z,23.09
2018-09-20T17:15:29.189Z,23.05
2018-09-20T17:18:32.344Z,23.20
2018-09-20T17:21:35.601Z,23.66
2018-09-20T17:23:07.080Z,23.61
2018-09-20T17:24:38.882Z,23.57
2018-09-20T17:26:10.756Z,23.80
2018-09-20T17:29:13.392Z,23.58
2018-09-20T17:33:48.711Z,23.66
2018-09-20T17:35:20.219Z,23.87
2018-09-20T17:36:51.665Z,23.51
2018-09-20T17:38:23.873Z,23.48
2018-09-20T17:39:55.115Z,23.50
2018-09-20T17:41:27.853Z,23.19
2018-09-20T17:42:58.456Z,23.32
2018-09-20T17:44:29.934Z,23.12
2018-09-20T17:46:01.039Z,23.07
2018-09-20T17:47:32.604Z,22.94
2018-09-20T17:49:04.368Z,22.90
2018-09-20T17:50:35.557Z,22.75
2018-09-20T17:52:07.394Z,22.76
2018-09-20T17:53:38.679Z,22.80
2018-09-20T17:55:10.273Z,22.85
2018-09-20T17:56:42.026Z,22.97
2018-09-20T17:59:45.123Z,22.77
2018-09-20T18:01:16.562Z,22.77
2018-09-20T18:02:48.806Z,22.75
2018-09-20T18:04:20.050Z,22.79
2018-09-20T18:05:51.307Z,22.77
2018-09-20T18:07:23.500Z,22.91
2018-09-20T18:10:26.127Z,22.72
2018-09-20T18:11:57.628Z,22.73
2018-09-20T18:15:01.090Z,22.98
2018-09-20T18:16:32.456Z,23.07
2018-09-20T18:18:04.693Z,22.97
2018-09-20T18:19:35.685Z,23.12
2018-09-20T18:21:07.124Z,23.22
2018-09-20T18:22:38.738Z,23.33
2018-09-20T18:25:41.900Z,23.46
2018-09-20T18:27:13.402Z,23.35
2018-09-20T18:28:45.149Z,23.25
2018-09-20T18:30:16.617Z,23.31
2018-09-20T18:31:48.142Z,23.09
2018-09-20T18:33:20.182Z,23.20
2018-09-20T18:34:51.301Z,23.19
2018-09-20T18:36:23.070Z,23.19
2018-09-20T18:37:54.741Z,23.22
2018-09-20T18:39:26.202Z,23.28
2018-09-20T18:42:29.762Z,23.17
2018-09-20T18:44:01.251Z,23.28
2018-09-20T18:45:32.661Z,23.19
2018-09-20T18:47:03.970Z,23.40
2018-09-20T18:48:35.751Z,23.46
2018-09-20T18:50:07.655Z,23.43
2018-09-20T18:51:38.985Z,23.20
2018-09-20T18:53:10.624Z,23.32
2018-09-20T18:54:41.961Z,23.31
2018-09-20T18:56:13.848Z,23.22
2018-09-20T18:57:44.965Z,23.32
2018-09-20T19:00:48.512Z,23.50
2018-09-20T19:02:19.756Z,23.46
2018-09-20T19:03:51.586Z,23.61
2018-09-20T19:05:22.960Z,23.60
2018-09-20T19:06:54.510Z,23.66
2018-09-20T19:08:26.008Z,23.57
2018-09-20T19:09:57.709Z,23.53
2018-09-20T19:11:29.779Z,23.50
2018-09-20T19:13:00.981Z,23.53
2018-09-20T19:14:32.820Z,23.58
2018-09-20T19:16:04.046Z,23.54
2018-09-20T19:17:35.606Z,23.47
2018-09-20T19:19:07.027Z,23.55
2018-09-20T19:20:38.959Z,23.65
2018-09-20T19:22:10.546Z,23.23
2018-09-20T19:23:41.944Z,23.20
2018-09-20T19:25:13.718Z,23.36
2018-09-20T19:26:45.449Z,23.38
2018-09-20T19:28:16.901Z,23.31
2018-09-20T19:29:49.306Z,23.35
2018-09-20T19:31:20.058Z,23.51
2018-09-20T19:34:23.115Z,23.42
2018-09-20T19:35:54.573Z,23.39
2018-09-20T19:38:57.874Z,23.27
2018-09-20T19:40:29.487Z,23.31
2018-09-20T19:42:01.679Z,23.31
2018-09-20T19:43:32.830Z,23.19
2018-09-20T19:45:03.982Z,23.02
2018-09-20T19:46:35.773Z,23.10
2018-09-20T19:48:07.792Z,23.15
2018-09-20T19:49:39.034Z,23.15
2018-09-20T19:51:10.333Z,23.01
2018-09-20T19:54:13.724Z,22.91
2018-09-20T19:55:44.907Z,22.94
2018-09-20T19:58:48.107Z,22.76
2018-09-20T20:00:19.867Z,22.77
2018-09-20T20:01:51.293Z,22.75
2018-09-20T20:03:22.758Z,22.73
2018-09-20T20:04:54.370Z,22.83
2018-09-20T20:06:26.246Z,22.75
2018-09-20T20:07:57.486Z,22.76
2018-09-20T20:09:29.362Z,22.80
2018-09-20T20:11:00.724Z,22.77
2018-09-20T20:12:32.834Z,22.70
2018-09-20T20:15:35.385Z,22.64
2018-09-20T20:17:06.941Z,22.62
2018-09-20T20:18:38.721Z,22.61
2018-09-20T20:21:42.191Z,22.70
2018-09-20T20:24:45.027Z,22.64
2018-09-20T20:29:19.550Z,22.54
2018-09-20T20:32:23.000Z,22.51
2018-09-20T20:33:54.276Z,22.57
2018-09-20T20:35:26.058Z,22.52
2018-09-20T20:36:58.262Z,22.42
2018-09-20T20:40:00.579Z,22.39
2018-09-20T20:41:32.159Z,22.31
2018-09-20T20:43:03.733Z,22.31
2018-09-20T20:44:35.331Z,22.27
2018-09-20T20:46:07.084Z,22.35
2018-09-20T20:47:38.457Z,22.17
2018-09-20T20:49:10.036Z,22.24
2018-09-20T20:52:13.285Z,21.99
2018-09-20T20:53:44.761Z,21.92
2018-09-20T20:55:16.640Z,21.80
2018-09-20T20:56:47.912Z,21.67
2018-09-20T20:58:19.490Z,21.67
2018-09-20T20:59:51.063Z,21.68
2018-09-20T21:01:22.639Z,21.47
2018-09-20T21:04:25.789Z,21.34
2018-09-20T21:05:57.674Z,21.17
2018-09-20T21:07:29.292Z,21.13
2018-09-20T21:10:32.396Z,20.95
2018-09-20T21:12:03.799Z,20.91
2018-09-20T21:13:35.247Z,20.89
2018-09-20T21:15:06.822Z,20.77
2018-09-20T21:16:38.485Z,20.76
2018-09-20T21:18:09.965Z,20.74
2018-09-20T21:19:42.264Z,20.69
2018-09-20T21:21:13.114Z,20.57
2018-09-20T21:22:44.688Z,20.54
2018-09-20T21:24:16.265Z,20.48
2018-09-20T21:25:47.840Z,20.42
2018-09-20T21:27:19.413Z,20.43
2018-09-20T21:28:51.391Z,20.31
2018-09-20T21:30:22.562Z,20.31
2018-09-20T21:31:54.138Z,20.32
2018-09-20T21:33:25.710Z,20.32
2018-09-20T21:34:57.591Z,20.17
2018-09-20T21:36:28.861Z,20.17
2018-09-20T21:38:00.435Z,20.17
2018-09-20T21:39:32.011Z,20.17
2018-09-20T21:41:03.582Z,20.11
2018-09-20T21:44:06.731Z,20.03
2018-09-20T21:45:38.306Z,19.92
2018-09-20T21:47:09.982Z,19.95
2018-09-20T21:48:41.458Z,19.94
2018-09-20T21:50:13.090Z,19.87
2018-09-20T21:51:44.906Z,19.81
2018-09-20T21:53:16.176Z,19.81
2018-09-20T21:54:47.749Z,19.80
2018-09-20T21:56:19.338Z,19.77
2018-09-20T21:57:50.898Z,19.81
2018-09-20T21:59:22.471Z,19.78
2018-09-20T22:02:25.622Z,19.87
2018-09-20T22:03:57.193Z,19.84
2018-09-20T22:05:29.118Z,19.81
2018-09-20T22:07:00.847Z,19.86
2018-09-20T22:08:32.434Z,19.96
2018-09-20T22:10:03.487Z,19.96
2018-09-20T22:11:35.061Z,19.99
2018-09-20T22:13:06.635Z,19.87
2018-09-20T22:14:38.209Z,19.88
2018-09-20T22:16:09.783Z,19.88
2018-09-20T22:17:41.357Z,19.96
2018-09-20T22:19:12.930Z,19.87
2018-09-20T22:20:44.504Z,19.84
2018-09-20T22:22:16.080Z,19.86
2018-09-20T22:25:19.327Z,19.95
2018-09-20T22:26:50.801Z,19.84
2018-09-20T22:28:22.374Z,19.96
2018-09-20T22:29:53.952Z,19.91
2018-09-20T22:31:25.523Z,19.81
2018-09-20T22:32:57.097Z,20.05
2018-09-20T22:34:28.669Z,20.05
2018-09-20T22:36:00.243Z,20.18
2018-09-20T22:37:31.818Z,20.20
2018-09-20T22:39:03.392Z,20.29
2018-09-20T22:40:34.966Z,20.32
2018-09-20T22:42:06.540Z,20.29
2018-09-20T22:43:38.212Z,20.38
2018-09-20T22:45:09.737Z,20.29
2018-09-20T22:46:41.443Z,20.29
2018-09-20T22:48:12.838Z,20.38
2018-09-20T22:49:44.409Z,20.26
2018-09-20T22:51:15.981Z,20.35
2018-09-20T22:52:47.610Z,20.18
2018-09-20T22:54:19.505Z,20.17
2018-09-20T22:55:50.904Z,20.10
2018-09-20T22:57:22.277Z,20.08
2018-09-20T22:58:53.852Z,20.05
2018-09-20T23:00:25.425Z,19.81
2018-09-20T23:01:57.102Z,19.73
2018-09-20T23:03:28.725Z,19.51
2018-09-20T23:05:00.146Z,19.44
2018-09-20T23:06:31.721Z,19.37
2018-09-20T23:08:03.292Z,19.36
2018-09-20T23:09:34.866Z,19.33
2018-09-20T23:11:06.438Z,19.39
2018-09-20T23:12:38.010Z,19.36
2018-09-20T23:14:09.587Z,19.32
2018-09-20T23:15:41.156Z,19.23
2018-09-20T23:17:12.729Z,19.26
2018-09-20T23:18:44.301Z,19.22
2018-09-20T23:20:15.975Z,19.25
2018-09-20T23:21:47.447Z,19.26
2018-09-20T23:23:19.022Z,19.25
2018-09-20T23:24:50.598Z,19.28
2018-09-20T23:26:22.265Z,19.21
2018-09-20T23:27:53.773Z,19.29
2018-09-20T23:29:25.309Z,19.29
2018-09-20T23:30:56.883Z,19.31
2018-09-20T23:32:28.605Z,19.36
2018-09-20T23:34:00.031Z,19.33
2018-09-20T23:35:31.599Z,19.31
2018-09-20T23:37:03.175Z,19.41
2018-09-20T23:38:34.844Z,19.47
2018-09-20T23:40:06.317Z,19.43
2018-09-20T23:41:37.892Z,19.50
2018-09-20T23:43:09.663Z,19.47
2018-09-20T23:44:41.134Z,19.59
2018-09-20T23:46:12.607Z,19.56
2018-09-20T23:47:44.180Z,19.44
2018-09-20T23:49:15.753Z,19.41
2018-09-20T23:50:47.351Z,19.43
2018-09-20T23:52:18.897Z,19.48
2018-09-20T23:53:50.473Z,19.33
2018-09-20T23:55:22.062Z,19.28
2018-09-20T23:56:53.922Z,19.29
2018-09-20T23:58:25.187Z,19.29
2018-09-20T23:59:56.760Z,19.44
